Kinsale, Virginia
Current Conditions -  °F | °C
As of 3:53 AM on Friday 31 Oct 2014 (Local Time) from KNUI Reporting Station
Clear Clear  
Wind Chill: 42°   Ceiling: Unl
Heat Index: 42°   Visibility: 9mi
Dew Point: 38°   Wind: 0mph
Humidity: 85%   Direction: NA
Pressure: 29.99"   Gusts: NA
Location:  38.03°N, 76.58°W
Report Text: KNUI 310753Z AUTO 00000KT 9SM CLR 06/03 A2999 RMK AO2 SLP156 T00560033
Loading
Personal Weather Stations






























Interactive Weather Map New forecast layout! Learn more

10-Day Weather Forecast

Advertisements
Track Severe Weather on mobile